DAAY

Mecheria Airport

Mecheria, Algeria
METAR DAAY 172200Z 35012KT 5000 -TS FEW026CB SCT030 23/13 Q1022
Observed Flight Rules
Aug-17 @ 22:00 UTC (37 minutes ago) Marginal Visual Flight Rules
Wind Visibility Clouds Conditions
350° at 12 knots 5,005 meters
  • Few at 2,600' AGL
  • Scattered at 3,000' AGL
  • Light Thunderstorm
Temperatures Readings
Current 23°C / 73°F
Dewpoint 13°C / 55°F
Humidity 53%
Altimeter 30.18" Hg
Pressure 1022 hPa
Elevation 1149
METAR DAAY 172200Z 35012KT 5000 -TS FEW026CB SCT030 23/13 Q1022
Observed Flight Rules
Aug-17 @ 22:00 UTC
(37 minutes ago)
MVFR
Wind Visibility
350° at 12 knots 5,005 meters
Clouds
  • Few at 2,600' AGL
  • Scattered at 3,000' AGL
Conditions
  • Light Thunderstorm
Temperature Dewpoint
23°C / 73°F 13°C / 55°F
Humidity Altimeter Pressure
53% 30.18" Hg 1022 hPa